Time;durP1;ratioP1;P1;durP2;ratioP2;P2;SDS_P1;SDS_P2;PMS_P1;PMS_P2;Temp;Humidity;BMP_temperature;BMP_pressure;BME280_temperature;BME280_humidity;BME280_pressure;Samples;Min_cycle;Max_cycle;Signal;HPM_P1;HPM_P2
2023/03/01 00:01:08;;;;;;;19.00;12.50;;;4.60;81.80;;;;;;5061237;28;21034;-67
2023/03/01 00:03:34;;;;;;;17.50;12.97;;;4.60;81.80;;;;;;5050414;28;20435;-69
2023/03/01 00:06:01;;;;;;;19.80;12.80;;;4.60;81.90;;;;;;5050452;28;20463;-69
2023/03/01 00:08:27;;;;;;;17.70;12.77;;;4.50;81.90;;;;;;5047910;28;20446;-69
2023/03/01 00:11:05;;;;;;;16.20;13.20;;;4.50;82.00;;;;;;5048835;28;20441;-69
2023/03/01 00:13:30;;;;;;;21.60;13.77;;;4.50;82.00;;;;;;5050308;28;20453;-69
2023/03/01 00:15:56;;;;;;;17.23;13.37;;;4.50;82.10;;;;;;5046811;28;21269;-69
2023/03/01 00:18:22;;;;;;;17.53;12.37;;;4.40;82.10;;;;;;5045857;28;20214;-68
2023/03/01 00:20:55;;;;;;;17.57;13.00;;;4.40;82.20;;;;;;5051754;28;20547;-68
2023/03/01 00:23:22;;;;;;;17.47;12.53;;;4.50;82.40;;;;;;5048997;28;20974;-69
2023/03/01 00:25:48;;;;;;;17.53;12.73;;;4.40;82.50;;;;;;5049164;28;20485;-68
2023/03/01 00:28:14;;;;;;;15.23;12.40;;;4.40;82.70;;;;;;5051264;28;20444;-68
2023/03/01 00:30:40;;;;;;;18.93;12.17;;;4.40;82.70;;;;;;5050351;28;20444;-69
2023/03/01 00:33:05;;;;;;;19.27;14.07;;;4.40;82.90;;;;;;5051672;28;20361;-68
2023/03/01 00:35:32;;;;;;;15.80;12.60;;;4.30;83.00;;;;;;5050579;28;20183;-68
2023/03/01 00:37:58;;;;;;;14.67;11.90;;;4.40;83.10;;;;;;5049586;28;20219;-68
2023/03/01 00:40:24;;;;;;;14.30;11.60;;;4.40;83.30;;;;;;5049762;28;20514;-69
2023/03/01 00:42:50;;;;;;;16.97;11.13;;;4.30;83.30;;;;;;5051277;28;20187;-69
2023/03/01 00:45:16;;;;;;;16.73;12.43;;;4.30;84.20;;;;;;5050058;28;20439;-68
2023/03/01 00:47:42;;;;;;;15.37;11.07;;;4.30;83.60;;;;;;5048809;28;20491;-68
2023/03/01 00:50:10;;;;;;;18.67;12.60;;;4.30;83.90;;;;;;5050349;28;20448;-68
2023/03/01 00:52:35;;;;;;;17.73;12.20;;;4.30;84.00;;;;;;5052420;28;20183;-70
2023/03/01 00:55:01;;;;;;;16.43;12.27;;;4.30;85.00;;;;;;5052496;28;21035;-68
2023/03/01 00:57:26;;;;;;;17.00;12.80;;;4.20;84.40;;;;;;5045118;28;20221;-67
2023/03/01 00:59:52;;;;;;;13.80;11.50;;;4.20;84.40;;;;;;5050192;28;20215;-67
2023/03/01 01:02:19;;;;;;;20.07;11.67;;;4.20;84.40;;;;;;5047433;28;20183;-69
2023/03/01 01:04:45;;;;;;;15.40;11.70;;;4.20;84.70;;;;;;5051837;28;20267;-68
2023/03/01 01:07:11;;;;;;;15.50;11.40;;;4.20;84.60;;;;;;5046213;28;20465;-69
2023/03/01 01:09:37;;;;;;;15.90;11.27;;;4.20;84.80;;;;;;5046778;28;20442;-69
2023/03/01 01:12:03;;;;;;;18.63;11.93;;;4.20;84.90;;;;;;5050393;28;20188;-69
2023/03/01 01:14:29;;;;;;;15.37;12.07;;;4.20;85.10;;;;;;5048290;28;21084;-69
2023/03/01 01:16:54;;;;;;;14.20;11.77;;;4.20;85.30;;;;;;5046056;28;20215;-69
2023/03/01 01:19:20;;;;;;;15.57;11.37;;;4.20;85.40;;;;;;5050988;28;20184;-69
2023/03/01 01:21:47;;;;;;;15.97;11.60;;;4.20;85.50;;;;;;5056631;28;20183;-69
2023/03/01 01:24:13;;;;;;;15.83;11.63;;;4.10;85.60;;;;;;5050925;28;20436;-69
2023/03/01 01:26:39;;;;;;;16.43;11.40;;;4.10;85.80;;;;;;5051129;28;20537;-69
2023/03/01 01:29:06;;;;;;;16.00;11.97;;;4.10;86.10;;;;;;5050771;28;20449;-69
2023/03/01 01:31:33;;;;;;;17.53;11.50;;;4.00;86.10;;;;;;5053688;28;20441;-69
2023/03/01 01:34:00;;;;;;;15.43;12.13;;;4.10;86.20;;;;;;5054006;28;20466;-68
2023/03/01 01:36:26;;;;;;;19.10;13.20;;;4.00;87.50;;;;;;5054002;28;20895;-69
2023/03/01 01:38:52;;;;;;;15.40;11.77;;;4.00;87.70;;;;;;5053593;28;20441;-69
2023/03/01 01:41:19;;;;;;;18.47;11.43;;;4.00;86.90;;;;;;5052066;28;20433;-69
2023/03/01 01:43:49;;;;;;;17.17;12.30;;;4.00;87.00;;;;;;5052377;28;20551;-68
2023/03/01 01:46:31;;;;;;;16.27;12.80;;;4.00;87.00;;;;;;5051725;28;20556;-68
2023/03/01 01:49:15;;;;;;;14.70;11.97;;;4.00;86.90;;;;;;5052724;28;20454;-68
2023/03/01 01:51:43;;;;;;;20.40;11.97;;;4.00;87.10;;;;;;5051371;28;20437;-68
2023/03/01 01:54:15;;;;;;;16.30;11.90;;;4.00;87.20;;;;;;5052276;28;20477;-67
2023/03/01 01:56:47;;;;;;;16.20;12.03;;;4.00;87.50;;;;;;5054890;28;20460;-67
2023/03/01 01:59:14;;;;;;;20.40;12.67;;;4.00;87.60;;;;;;5051429;28;20528;-67
2023/03/01 02:01:39;;;;;;;17.70;12.60;;;4.00;87.90;;;;;;5052386;28;20653;-67
2023/03/01 02:04:06;;;;;;;12.67;10.33;;;4.00;87.90;;;;;;5048031;28;20559;-67
2023/03/01 02:06:37;;;;;;;16.27;12.20;;;4.00;87.90;;;;;;5053115;28;20218;-67
2023/03/01 02:09:14;;;;;;;17.00;12.23;;;4.00;88.00;;;;;;5051074;28;20989;-67
2023/03/01 02:11:40;;;;;;;15.00;12.37;;;4.00;88.30;;;;;;5049265;28;20903;-66
2023/03/01 02:14:06;;;;;;;19.23;12.30;;;4.00;88.30;;;;;;5051913;28;20835;-67
2023/03/01 02:16:32;;;;;;;16.90;11.83;;;3.90;88.40;;;;;;5049558;28;20461;-67
2023/03/01 02:18:58;;;;;;;17.87;12.17;;;3.90;88.40;;;;;;5050374;28;20194;-68
2023/03/01 02:21:33;;;;;;;17.30;12.90;;;3.90;88.60;;;;;;5051868;28;20954;-68
2023/03/01 02:24:07;;;;;;;16.80;11.67;;;3.90;88.50;;;;;;5054455;28;21130;-68
2023/03/01 02:26:41;;;;;;;14.63;11.03;;;3.90;88.80;;;;;;5048705;28;20448;-68
2023/03/01 02:29:07;;;;;;;18.17;12.80;;;3.90;88.90;;;;;;5052469;28;20514;-68
2023/03/01 02:31:42;;;;;;;17.40;13.20;;;3.90;88.90;;;;;;5051582;28;20453;-68
2023/03/01 02:34:11;;;;;;;18.47;12.10;;;3.90;89.00;;;;;;5052011;28;20823;-68
2023/03/01 02:36:45;;;;;;;17.90;13.57;;;3.90;89.40;;;;;;5052175;28;20465;-68
2023/03/01 02:39:16;;;;;;;17.80;13.30;;;3.80;89.60;;;;;;5047603;28;20574;-68
2023/03/01 02:41:47;;;;;;;18.67;13.47;;;3.80;89.70;;;;;;5049316;28;20815;-70
2023/03/01 02:44:12;;;;;;;17.70;12.83;;;3.80;89.60;;;;;;5035303;28;20862;-69
2023/03/01 02:46:47;;;;;;;18.77;13.17;;;3.80;90.00;;;;;;5048180;28;21309;-69
2023/03/01 02:49:27;;;;;;;19.43;12.40;;;3.80;90.00;;;;;;5053475;28;20580;-69
2023/03/01 02:52:05;;;;;;;13.60;11.23;;;3.80;90.10;;;;;;5047095;28;21117;-69
2023/03/01 02:54:36;;;;;;;17.13;11.53;;;3.80;90.10;;;;;;5049460;28;20469;-70
2023/03/01 02:57:03;;;;;;;17.00;11.20;;;3.80;90.20;;;;;;5048566;28;20549;-69
2023/03/01 02:59:33;;;;;;;15.03;11.60;;;3.80;90.20;;;;;;5051592;28;20553;-70
2023/03/01 03:02:00;;;;;;;20.23;13.27;;;3.80;90.30;;;;;;5049473;28;21115;-69
2023/03/01 03:04:26;;;;;;;17.87;13.07;;;3.70;90.40;;;;;;5047627;28;20962;-70
2023/03/01 03:06:51;;;;;;;16.27;13.20;;;3.70;90.50;;;;;;5046796;28;20536;-69
2023/03/01 03:09:17;;;;;;;18.77;12.17;;;3.70;90.50;;;;;;5048782;28;20270;-69
2023/03/01 03:11:43;;;;;;;19.00;12.97;;;3.70;90.60;;;;;;5049815;28;20676;-68
2023/03/01 03:14:12;;;;;;;17.80;13.57;;;3.70;90.60;;;;;;5047565;28;20466;-69
2023/03/01 03:16:43;;;;;;;18.97;12.57;;;3.70;90.80;;;;;;5048806;28;20198;-68
2023/03/01 03:19:09;;;;;;;18.17;13.10;;;3.60;90.90;;;;;;5047275;28;20500;-69
2023/03/01 03:21:35;;;;;;;18.17;12.70;;;3.60;90.90;;;;;;5044348;28;20453;-68
2023/03/01 03:24:00;;;;;;;18.03;12.83;;;3.60;90.90;;;;;;5050065;28;20187;-68
2023/03/01 03:26:26;;;;;;;19.40;14.20;;;3.60;91.00;;;;;;5045008;28;20365;-69
2023/03/01 03:28:52;;;;;;;20.27;13.50;;;3.60;91.00;;;;;;5049632;28;20186;-67
2023/03/01 03:31:17;;;;;;;17.43;12.93;;;3.60;91.10;;;;;;5050750;28;20954;-69
2023/03/01 03:33:43;;;;;;;16.17;13.30;;;3.60;91.10;;;;;;5047667;28;20927;-67
2023/03/01 03:36:12;;;;;;;20.90;14.13;;;3.60;91.10;;;;;;5046095;28;20209;-68
2023/03/01 03:38:39;;;;;;;19.47;13.83;;;3.60;91.20;;;;;;5048340;28;20218;-67
2023/03/01 03:41:08;;;;;;;21.03;14.10;;;3.60;91.20;;;;;;5052413;28;20442;-68
2023/03/01 03:43:37;;;;;;;19.90;12.93;;;3.60;91.30;;;;;;5048896;28;20511;-68
2023/03/01 03:46:07;;;;;;;20.57;14.10;;;3.60;91.40;;;;;;5050605;28;20528;-68
2023/03/01 03:48:41;;;;;;;20.43;13.17;;;3.60;91.50;;;;;;5049843;28;20833;-69
2023/03/01 03:51:09;;;;;;;18.23;13.20;;;3.60;91.60;;;;;;5050185;28;20472;-68
2023/03/01 03:53:35;;;;;;;18.50;14.33;;;3.60;91.60;;;;;;5051189;28;20473;-68
2023/03/01 03:56:01;;;;;;;20.10;14.37;;;3.60;91.60;;;;;;5050030;28;20488;-68
2023/03/01 03:58:26;;;;;;;19.03;13.33;;;3.60;91.60;;;;;;5045677;28;20560;-68
2023/03/01 04:00:58;;;;;;;20.10;15.07;;;3.50;91.70;;;;;;5048033;28;20234;-68
2023/03/01 04:03:25;;;;;;;21.93;14.27;;;3.50;91.70;;;;;;5046666;28;20638;-69
2023/03/01 04:05:52;;;;;;;17.10;12.83;;;3.50;91.80;;;;;;5051444;28;20433;-68
2023/03/01 04:08:20;;;;;;;19.20;13.57;;;3.50;91.90;;;;;;5048164;28;20437;-69
2023/03/01 04:10:48;;;;;;;17.27;12.63;;;3.50;91.90;;;;;;5050690;28;20524;-69
2023/03/01 04:13:17;;;;;;;18.93;13.30;;;3.50;91.90;;;;;;5043718;28;20448;-69
2023/03/01 04:15:43;;;;;;;18.50;14.73;;;3.50;92.10;;;;;;5047615;28;20445;-69
2023/03/01 04:18:13;;;;;;;21.17;13.80;;;3.50;92.10;;;;;;5046412;28;20449;-69
2023/03/01 04:20:38;;;;;;;16.00;12.60;;;3.50;92.00;;;;;;5048404;28;20533;-67
2023/03/01 04:23:15;;;;;;;20.00;12.73;;;3.40;92.10;;;;;;5047031;28;21036;-68
2023/03/01 04:25:46;;;;;;;18.23;13.77;;;3.40;92.10;;;;;;5044868;28;20183;-69
2023/03/01 04:28:11;;;;;;;21.10;14.07;;;3.40;92.10;;;;;;5043212;28;20893;-68
2023/03/01 04:30:38;;;;;;;22.53;13.60;;;3.40;92.20;;;;;;5045334;28;20540;-68
2023/03/01 04:33:08;;;;;;;22.00;14.20;;;3.40;92.30;;;;;;5049801;28;20215;-68
2023/03/01 04:35:35;;;;;;;18.20;13.77;;;3.40;92.30;;;;;;5051945;28;20495;-68
2023/03/01 04:38:01;;;;;;;22.10;13.70;;;3.30;92.50;;;;;;5046738;28;20586;-69
2023/03/01 04:40:27;;;;;;;20.80;13.90;;;3.30;92.50;;;;;;5048338;28;20446;-69
2023/03/01 04:42:52;;;;;;;21.77;15.00;;;3.30;92.60;;;;;;5048388;28;20183;-69
2023/03/01 04:45:18;;;;;;;20.97;14.57;;;3.30;92.80;;;;;;5047379;28;20186;-70
2023/03/01 04:47:45;;;;;;;23.60;13.43;;;3.30;92.80;;;;;;5050285;28;20252;-69
2023/03/01 04:50:13;;;;;;;18.90;13.50;;;3.30;92.80;;;;;;5047982;28;20241;-69
2023/03/01 04:52:39;;;;;;;24.60;15.40;;;3.30;92.70;;;;;;5050877;28;20847;-69
2023/03/01 04:55:05;;;;;;;24.27;15.10;;;3.30;92.80;;;;;;5052573;28;20472;-69
2023/03/01 04:57:31;;;;;;;23.30;14.93;;;3.30;92.80;;;;;;5049777;28;20200;-67
2023/03/01 04:59:57;;;;;;;19.77;14.23;;;3.30;93.00;;;;;;5053667;28;20957;-68
2023/03/01 05:02:23;;;;;;;23.10;15.00;;;3.30;92.90;;;;;;5053267;28;20913;-68
2023/03/01 05:04:48;;;;;;;21.83;15.03;;;3.30;92.90;;;;;;5054539;28;20198;-68
2023/03/01 05:07:19;;;;;;;24.87;14.47;;;3.30;93.00;;;;;;5056550;28;20616;-68
2023/03/01 05:09:46;;;;;;;25.70;15.10;;;3.20;93.00;;;;;;5054385;28;21278;-68
2023/03/01 05:12:12;;;;;;;22.73;16.10;;;3.20;93.10;;;;;;5054743;28;20445;-68
2023/03/01 05:14:38;;;;;;;20.93;14.40;;;3.20;93.50;;;;;;5057520;28;20840;-68
2023/03/01 05:17:04;;;;;;;20.50;13.77;;;3.20;93.20;;;;;;5052210;28;20564;-68
2023/03/01 05:19:31;;;;;;;20.97;14.13;;;3.20;93.30;;;;;;5054117;28;20437;-68
2023/03/01 05:22:06;;;;;;;25.73;14.60;;;3.20;93.30;;;;;;5051924;28;20187;-68
2023/03/01 05:24:34;;;;;;;23.47;15.10;;;3.20;93.30;;;;;;5050078;28;20436;-69
2023/03/01 05:27:01;;;;;;;18.83;14.07;;;3.10;93.30;;;;;;5052566;28;20526;-69
2023/03/01 05:29:28;;;;;;;23.10;15.73;;;3.10;93.50;;;;;;5049178;28;20455;-69
2023/03/01 05:31:56;;;;;;;25.17;15.60;;;3.10;93.50;;;;;;5048167;28;20503;-68
2023/03/01 05:34:35;;;;;;;22.03;14.67;;;3.10;93.50;;;;;;5055811;28;20469;-68
2023/03/01 05:37:00;;;;;;;25.20;15.47;;;3.10;93.50;;;;;;5050209;28;20552;-68
2023/03/01 05:39:28;;;;;;;19.80;14.07;;;3.10;93.60;;;;;;5051095;28;20898;-68
2023/03/01 05:41:59;;;;;;;21.97;16.20;;;3.10;93.60;;;;;;5050758;28;20191;-69
2023/03/01 05:44:26;;;;;;;20.40;13.70;;;3.00;93.70;;;;;;5052100;28;20552;-69
2023/03/01 05:46:52;;;;;;;20.77;14.73;;;3.00;93.70;;;;;;5049682;28;20484;-69
2023/03/01 05:49:17;;;;;;;22.93;13.73;;;3.00;93.80;;;;;;5049416;28;20444;-69
2023/03/01 05:51:48;;;;;;;22.00;15.20;;;3.00;93.80;;;;;;5051413;28;20183;-70
2023/03/01 05:54:14;;;;;;;21.93;15.27;;;3.00;93.90;;;;;;5053809;28;20206;-70
2023/03/01 05:56:40;;;;;;;25.77;14.07;;;3.00;93.90;;;;;;5049951;28;20473;-71
2023/03/01 05:59:06;;;;;;;24.30;16.27;;;3.00;94.00;;;;;;5050237;28;20528;-70
2023/03/01 06:01:32;;;;;;;24.43;15.10;;;3.00;94.10;;;;;;5046824;28;20668;-69
2023/03/01 06:03:58;;;;;;;20.60;15.40;;;2.90;94.10;;;;;;5049435;28;20862;-69
2023/03/01 06:06:24;;;;;;;22.23;15.80;;;2.90;94.20;;;;;;5049411;28;20489;-70
2023/03/01 06:08:51;;;;;;;21.90;14.40;;;2.90;94.20;;;;;;5048610;28;20888;-69
2023/03/01 06:11:17;;;;;;;20.10;14.67;;;2.90;94.20;;;;;;5050356;28;20477;-69
2023/03/01 06:13:43;;;;;;;19.60;15.03;;;3.00;94.20;;;;;;5047904;28;21019;-68
2023/03/01 06:16:09;;;;;;;31.33;15.33;;;2.90;94.20;;;;;;5048669;28;20777;-69
2023/03/01 06:18:35;;;;;;;23.17;14.43;;;2.90;94.30;;;;;;5047137;28;20548;-69
2023/03/01 06:21:01;;;;;;;24.63;16.33;;;2.90;94.30;;;;;;5047342;28;20188;-70
2023/03/01 06:23:27;;;;;;;22.37;15.10;;;2.90;94.30;;;;;;5050708;28;20434;-69
2023/03/01 06:25:52;;;;;;;25.23;15.43;;;2.90;94.40;;;;;;5047063;28;20187;-69
2023/03/01 06:28:18;;;;;;;23.67;14.80;;;2.90;94.50;;;;;;5047009;28;20192;-70
2023/03/01 06:30:43;;;;;;;26.93;15.97;;;2.90;94.50;;;;;;5048080;28;20193;-68
2023/03/01 06:33:09;;;;;;;23.60;15.83;;;2.90;94.60;;;;;;5050352;28;20183;-68
2023/03/01 06:35:35;;;;;;;25.20;16.07;;;2.90;94.60;;;;;;5046826;28;20576;-68
2023/03/01 06:38:02;;;;;;;25.40;17.27;;;2.80;94.60;;;;;;5046889;28;20590;-68
2023/03/01 06:40:28;;;;;;;20.50;15.10;;;2.90;94.70;;;;;;5049610;28;20651;-68
2023/03/01 06:42:53;;;;;;;22.47;15.53;;;2.90;95.10;;;;;;5047903;28;20815;-68
2023/03/01 06:45:20;;;;;;;30.50;19.53;;;2.90;94.70;;;;;;5046613;28;20446;-68
2023/03/01 06:47:45;;;;;;;29.47;16.03;;;2.90;94.90;;;;;;5047986;28;20653;-68
2023/03/01 06:50:12;;;;;;;28.83;17.13;;;2.90;94.90;;;;;;5049726;28;20584;-67
2023/03/01 06:52:38;;;;;;;26.60;16.57;;;2.90;94.80;;;;;;5043807;28;20277;-67
2023/03/01 06:55:05;;;;;;;23.07;16.23;;;2.90;94.90;;;;;;5044718;28;20631;-67
2023/03/01 06:57:30;;;;;;;42.43;17.90;;;2.90;94.90;;;;;;5049255;28;20576;-66
2023/03/01 06:59:56;;;;;;;39.77;17.77;;;2.90;95.00;;;;;;5049973;28;20472;-64
2023/03/01 07:02:22;;;;;;;28.27;16.07;;;2.90;95.00;;;;;;5050454;28;20175;-65
2023/03/01 07:04:50;;;;;;;32.57;16.87;;;2.90;95.00;;;;;;5053577;28;20619;-63
2023/03/01 07:07:15;;;;;;;52.80;19.33;;;2.90;95.00;;;;;;5048548;28;20218;-65
2023/03/01 07:09:41;;;;;;;46.50;17.30;;;3.00;95.10;;;;;;5054098;28;20509;-65
2023/03/01 07:12:07;;;;;;;55.67;18.47;;;3.00;95.10;;;;;;5051638;28;20195;-65
2023/03/01 07:14:33;;;;;;;29.73;18.20;;;2.90;95.20;;;;;;5044331;28;20386;-65
2023/03/01 07:16:59;;;;;;;24.43;17.00;;;3.00;95.20;;;;;;5048855;28;20455;-65
2023/03/01 07:19:24;;;;;;;24.47;15.10;;;3.00;95.20;;;;;;5049209;28;20435;-65
2023/03/01 07:21:50;;;;;;;28.70;16.80;;;3.00;95.20;;;;;;5028821;28;20207;-65
2023/03/01 07:24:16;;;;;;;26.53;16.37;;;3.00;95.20;;;;;;5051770;28;20241;-65
2023/03/01 07:26:41;;;;;;;22.27;15.47;;;3.10;95.20;;;;;;5043943;28;20210;-65
2023/03/01 07:29:09;;;;;;;24.73;15.47;;;3.00;95.10;;;;;;5051229;28;20187;-65
2023/03/01 07:31:34;;;;;;;30.10;18.17;;;3.10;95.20;;;;;;5048171;28;20183;-65
2023/03/01 07:34:00;;;;;;;25.20;16.70;;;3.00;95.20;;;;;;5043088;28;20466;-65
2023/03/01 07:36:26;;;;;;;27.90;18.50;;;3.10;95.30;;;;;;5048350;28;20226;-65
2023/03/01 07:38:51;;;;;;;25.10;18.10;;;3.10;95.20;;;;;;5048626;28;20191;-65
2023/03/01 07:41:17;;;;;;;26.30;15.80;;;3.10;95.10;;;;;;5053182;28;20175;-65
2023/03/01 07:43:43;;;;;;;29.43;16.50;;;3.10;95.20;;;;;;5051812;28;20191;-65
2023/03/01 07:46:08;;;;;;;21.37;16.40;;;3.20;95.10;;;;;;5049672;28;20219;-65
2023/03/01 07:48:34;;;;;;;26.00;18.20;;;3.10;95.20;;;;;;5044994;28;20270;-65
2023/03/01 07:51:05;;;;;;;28.27;17.67;;;3.20;95.10;;;;;;5050667;28;20187;-65
2023/03/01 07:53:33;;;;;;;31.47;17.13;;;3.20;95.00;;;;;;5046036;28;20728;-65
2023/03/01 07:56:04;;;;;;;26.07;16.70;;;3.10;95.20;;;;;;5048910;28;20434;-66
2023/03/01 07:58:30;;;;;;;49.33;26.77;;;3.00;94.90;;;;;;5052492;28;20425;-63
2023/03/01 08:00:55;;;;;;;28.40;16.67;;;3.10;94.90;;;;;;5053176;28;20429;-62
2023/03/01 08:03:21;;;;;;;28.33;17.57;;;3.10;94.80;;;;;;5053185;28;20175;-62
2023/03/01 08:05:46;;;;;;;27.60;17.40;;;3.10;95.00;;;;;;5048715;28;20199;-63
2023/03/01 08:08:12;;;;;;;27.47;16.23;;;3.20;94.90;;;;;;5050106;28;20198;-63
2023/03/01 08:10:37;;;;;;;23.43;17.17;;;3.20;95.10;;;;;;5050192;28;20183;-63
2023/03/01 08:13:03;;;;;;;25.43;16.57;;;3.30;95.00;;;;;;5052649;28;20263;-63
2023/03/01 08:15:28;;;;;;;25.67;17.30;;;3.30;94.90;;;;;;5048738;28;20800;-65
2023/03/01 08:17:54;;;;;;;27.10;17.40;;;3.30;94.90;;;;;;5050415;28;20207;-63
2023/03/01 08:20:19;;;;;;;22.90;15.90;;;3.40;94.90;;;;;;5047869;28;20186;-63
2023/03/01 08:22:45;;;;;;;26.53;18.27;;;3.40;94.70;;;;;;5049628;28;20175;-63
2023/03/01 08:25:11;;;;;;;25.97;17.03;;;3.40;94.80;;;;;;5047568;28;20214;-63
2023/03/01 08:27:36;;;;;;;28.03;18.40;;;3.50;94.80;;;;;;5048424;28;20211;-64
2023/03/01 08:30:02;;;;;;;23.93;16.70;;;3.60;94.60;;;;;;5049323;28;20191;-64
2023/03/01 08:32:27;;;;;;;25.93;16.63;;;3.60;94.40;;;;;;5045185;28;20184;-64
2023/03/01 08:34:53;;;;;;;25.63;18.60;;;3.50;94.50;;;;;;5047491;28;20270;-63
2023/03/01 08:37:18;;;;;;;24.80;16.13;;;3.50;94.60;;;;;;5045950;28;20234;-63
2023/03/01 08:39:44;;;;;;;25.93;17.07;;;3.60;94.60;;;;;;5051814;28;20209;-64
2023/03/01 08:42:09;;;;;;;26.17;17.20;;;3.50;94.30;;;;;;5047600;28;20189;-63
2023/03/01 08:44:35;;;;;;;29.17;18.40;;;3.60;94.50;;;;;;5047204;28;20551;-63
2023/03/01 08:47:02;;;;;;;26.00;16.07;;;3.60;94.50;;;;;;5051926;28;20222;-63
2023/03/01 08:49:27;;;;;;;32.30;17.53;;;3.70;94.40;;;;;;5049646;28;20270;-64
2023/03/01 08:51:54;;;;;;;28.83;18.10;;;3.70;94.40;;;;;;5051445;28;21101;-63
2023/03/01 08:54:20;;;;;;;32.00;19.00;;;3.70;94.40;;;;;;5050791;28;20212;-63
2023/03/01 08:56:46;;;;;;;26.83;17.30;;;3.80;94.50;;;;;;5048549;28;20516;-64
2023/03/01 08:59:14;;;;;;;26.27;15.87;;;3.80;94.50;;;;;;5050242;28;21273;-64
2023/03/01 09:01:42;;;;;;;25.07;16.43;;;3.80;94.70;;;;;;5050157;28;20210;-64
2023/03/01 09:04:08;;;;;;;25.50;17.30;;;4.00;94.60;;;;;;5048649;28;20974;-64
2023/03/01 09:06:35;;;;;;;28.83;17.63;;;4.10;94.40;;;;;;5048575;28;20521;-64
2023/03/01 09:09:01;;;;;;;22.77;16.40;;;4.10;94.40;;;;;;5045739;28;20486;-64
2023/03/01 09:11:28;;;;;;;27.47;18.03;;;4.20;94.30;;;;;;5050459;28;20438;-64
2023/03/01 09:13:53;;;;;;;25.20;16.60;;;4.30;94.30;;;;;;5049602;28;20473;-64
2023/03/01 09:16:21;;;;;;;24.60;18.13;;;4.30;94.30;;;;;;5049310;28;20438;-65
2023/03/01 09:18:52;;;;;;;28.17;17.60;;;4.30;94.10;;;;;;5048193;28;20903;-64
2023/03/01 09:21:18;;;;;;;25.90;17.87;;;4.40;93.90;;;;;;5046863;28;20434;-64
2023/03/01 09:23:46;;;;;;;27.33;17.70;;;4.40;93.90;;;;;;5048634;28;20426;-63
2023/03/01 09:26:16;;;;;;;25.87;17.70;;;4.40;94.00;;;;;;5054717;28;20539;-63
2023/03/01 09:28:42;;;;;;;27.40;17.70;;;4.50;93.90;;;;;;5050192;28;20493;-64
2023/03/01 09:31:08;;;;;;;27.73;18.57;;;4.50;94.00;;;;;;5049449;28;20445;-64
2023/03/01 09:33:34;;;;;;;27.27;18.00;;;4.60;93.90;;;;;;5049430;28;20418;-64
2023/03/01 09:36:02;;;;;;;25.77;16.63;;;4.60;93.90;;;;;;5045395;28;20223;-64
2023/03/01 09:38:27;;;;;;;31.67;20.23;;;4.70;93.90;;;;;;5044185;28;20450;-63
2023/03/01 09:40:53;;;;;;;29.53;19.00;;;4.70;93.80;;;;;;5052403;28;20479;-63
2023/03/01 09:43:31;;;;;;;26.30;18.03;;;4.90;93.70;;;;;;5054732;28;20257;-64
2023/03/01 09:46:03;;;;;;;26.00;17.63;;;4.90;93.50;;;;;;5054595;28;20248;-63
2023/03/01 09:48:38;;;;;;;26.70;19.07;;;4.90;93.40;;;;;;5057054;28;20792;-63
2023/03/01 09:51:08;;;;;;;26.87;17.40;;;4.90;93.50;;;;;;5051863;28;20420;-64
2023/03/01 09:53:35;;;;;;;23.80;18.40;;;5.00;93.50;;;;;;5053953;28;20438;-64
2023/03/01 09:56:40;;;;;;;27.10;18.30;;;5.10;93.40;;;;;;5051809;28;20440;-64
2023/03/01 09:59:30;;;;;;;28.47;19.03;;;5.10;93.40;;;;;;5051863;28;20460;-64
2023/03/01 10:01:55;;;;;;;26.50;17.63;;;5.20;93.40;;;;;;5049860;28;20437;-64
2023/03/01 10:04:30;;;;;;;26.57;18.00;;;5.20;93.10;;;;;;5054705;28;20452;-64
2023/03/01 10:07:27;;;;;;;26.50;18.20;;;5.30;93.20;;;;;;5053283;28;20615;-64
2023/03/01 10:09:53;;;;;;;30.37;17.90;;;5.20;93.10;;;;;;5054533;28;20435;-64
2023/03/01 10:12:25;;;;;;;26.67;17.70;;;5.30;93.10;;;;;;5048592;28;20450;-64
2023/03/01 10:15:17;;;;;;;41.07;22.13;;;5.40;93.00;;;;;;5049577;28;20256;-63
2023/03/01 10:18:02;;;;;;;26.10;17.60;;;5.50;93.00;;;;;;5052134;28;20474;-64
2023/03/01 10:20:59;;;;;;;25.50;17.40;;;5.50;92.90;;;;;;5049082;28;21060;-64
2023/03/01 10:23:27;;;;;;;24.90;17.57;;;5.60;92.90;;;;;;5049244;28;20434;-64
2023/03/01 10:26:14;;;;;;;25.57;18.23;;;5.70;92.60;;;;;;5052836;28;20459;-64
2023/03/01 10:28:44;;;;;;;25.80;18.13;;;5.70;92.40;;;;;;5048993;28;20766;-64
2023/03/01 10:31:22;;;;;;;27.13;17.97;;;5.80;92.30;;;;;;5049747;28;20461;-64
2023/03/01 10:33:51;;;;;;;26.13;18.73;;;5.80;92.40;;;;;;5046805;28;21680;-64
2023/03/01 10:36:17;;;;;;;26.27;18.13;;;5.80;92.40;;;;;;5055594;28;20437;-64
2023/03/01 10:38:57;;;;;;;29.13;20.07;;;5.90;92.30;;;;;;5054017;28;20446;-64
2023/03/01 10:41:25;;;;;;;31.70;19.20;;;6.00;92.20;;;;;;5048175;28;20258;-64
2023/03/01 10:43:53;;;;;;;29.97;19.10;;;6.00;92.00;;;;;;5049561;28;20472;-64
2023/03/01 10:46:36;;;;;;;24.20;18.10;;;6.10;92.10;;;;;;5054529;28;20902;-64
2023/03/01 10:49:19;;;;;;;29.30;19.37;;;6.20;91.90;;;;;;5049171;28;20450;-64
2023/03/01 10:51:47;;;;;;;25.90;19.30;;;6.20;91.70;;;;;;5046960;28;20461;-63
2023/03/01 10:54:33;;;;;;;23.43;17.87;;;6.20;91.70;;;;;;5053506;28;20445;-64
2023/03/01 10:57:03;;;;;;;27.03;18.20;;;6.20;91.60;;;;;;5047081;28;20514;-63
2023/03/01 10:59:35;;;;;;;26.67;18.87;;;6.30;91.40;;;;;;5057493;28;20417;-63
2023/03/01 11:02:04;;;;;;;30.60;19.63;;;6.40;91.30;;;;;;5050061;28;20532;-64
2023/03/01 11:04:29;;;;;;;32.03;18.67;;;6.50;91.30;;;;;;5048947;28;20430;-64
2023/03/01 11:07:00;;;;;;;24.87;17.90;;;6.60;91.20;;;;;;5048626;28;20453;-63
2023/03/01 11:09:31;;;;;;;27.70;18.53;;;6.60;91.00;;;;;;5056486;28;20191;-63
2023/03/01 11:12:00;;;;;;;26.53;18.50;;;6.70;91.00;;;;;;5045213;28;20488;-63
2023/03/01 11:14:45;;;;;;;24.03;17.57;;;6.70;90.80;;;;;;5052964;28;20829;-62
2023/03/01 11:17:31;;;;;;;25.27;18.67;;;6.80;90.70;;;;;;5048656;28;20441;-62
2023/03/01 11:20:14;;;;;;;29.70;19.00;;;6.80;90.50;;;;;;5049791;28;20438;-62
2023/03/01 11:22:55;;;;;;;32.70;20.33;;;6.90;90.60;;;;;;5053933;28;20932;-63
2023/03/01 11:25:25;;;;;;;27.33;18.73;;;7.00;90.60;;;;;;5048997;28;20426;-62
2023/03/01 11:27:52;;;;;;;28.27;18.77;;;7.10;90.30;;;;;;5051967;28;20473;-63
2023/03/01 11:30:23;;;;;;;27.10;20.00;;;7.10;90.20;;;;;;5050050;28;20476;-63
2023/03/01 11:33:07;;;;;;;38.63;25.20;;;7.10;90.20;;;;;;5048459;28;20430;-63
2023/03/01 11:35:37;;;;;;;29.50;19.10;;;7.20;90.10;;;;;;5053523;28;20994;-63
2023/03/01 11:38:21;;;;;;;28.43;19.53;;;7.30;90.10;;;;;;5045956;28;20785;-63
2023/03/01 11:40:53;;;;;;;25.50;18.37;;;7.30;90.30;;;;;;5047955;28;20436;-63
2023/03/01 11:43:37;;;;;;;26.30;20.57;;;7.40;90.00;;;;;;5049732;28;20845;-63
2023/03/01 11:46:31;;;;;;;30.60;19.53;;;7.40;89.90;;;;;;5043629;28;20923;-63
2023/03/01 11:49:18;;;;;;;28.83;20.10;;;7.50;90.10;;;;;;5047220;28;20860;-63
2023/03/01 11:51:59;;;;;;;25.33;19.20;;;7.60;90.00;;;;;;5051515;28;20452;-64
2023/03/01 11:54:31;;;;;;;27.63;19.03;;;7.70;89.50;;;;;;5051015;28;20511;-64
2023/03/01 11:57:02;;;;;;;34.83;24.60;;;7.80;89.10;;;;;;5047578;28;20445;-65
2023/03/01 11:59:46;;;;;;;40.03;28.13;;;7.90;88.80;;;;;;5049567;28;20486;-65
2023/03/01 12:02:47;;;;;;;44.60;26.83;;;7.90;88.60;;;;;;5044082;28;20446;-64
2023/03/01 12:05:14;;;;;;;31.67;24.00;;;8.10;88.40;;;;;;4972352;28;20532;-64
2023/03/01 12:08:01;;;;;;;28.70;20.70;;;8.20;88.50;;;;;;5033544;28;20469;-64
2023/03/01 12:10:30;;;;;;;31.83;20.00;;;8.30;87.80;;;;;;5046469;28;20434;-64
2023/03/01 12:13:10;;;;;;;27.97;20.30;;;8.60;89.20;;;;;;5052440;28;20432;-63
2023/03/01 12:15:53;;;;;;;28.60;20.50;;;10.30;89.40;;;;;;5044973;28;20469;-64
2023/03/01 12:18:54;;;;;;;25.43;19.70;;;12.30;85.50;;;;;;5048228;28;20422;-64
2023/03/01 12:21:42;;;;;;;29.57;21.90;;;13.90;75.40;;;;;;5045158;28;20445;-64
2023/03/01 12:24:33;;;;;;;26.83;21.80;;;15.60;73.30;;;;;;5049592;28;20472;-64
2023/03/01 12:27:21;;;;;;;26.57;22.20;;;16.70;68.30;;;;;;5047113;28;21370;-64
2023/03/01 12:30:11;;;;;;;23.13;20.50;;;17.90;64.20;;;;;;5050236;28;20441;-65
2023/03/01 12:33:13;;;;;;;20.83;18.73;;;18.90;59.10;;;;;;5047855;28;20528;-64
2023/03/01 12:35:58;;;;;;;23.83;21.23;;;19.80;58.20;;;;;;5047597;28;20836;-65
2023/03/01 12:38:55;;;;;;;26.10;20.40;;;20.40;54.30;;;;;;5046629;28;20438;-64
2023/03/01 12:41:32;;;;;;;21.70;19.40;;;21.10;51.90;;;;;;5049156;28;20453;-64
2023/03/01 12:44:33;;;;;;;22.57;20.33;;;21.60;50.40;;;;;;5045474;28;20504;-64
2023/03/01 12:47:11;;;;;;;22.47;20.17;;;22.20;48.90;;;;;;5044054;28;20478;-64
2023/03/01 12:49:42;;;;;;;21.40;19.10;;;22.70;47.60;;;;;;5051145;28;21410;-65